Huvudsida
METAR-TAF:

METAR-TAF

Flygplatser :

Ørsta-Volda flygplats. Hovden

Ørsta-Volda, Norge

latitud: 62-11N, longitud: 006-04E, höjd: 7 m

Aktuellt väderrapport

Denna rapport gjordes för 39 minuter sedan, klockan 22:20 UTC
Vind 2 kt varierande vindriktning
Temperatur 2°C
Fuktighet 55%
Tryck 1004 hPa
Sikt 10 km eller mer
Få moln på en höjd av 3900 ft
Brutna moln på en höjd av 5500 ft

METAR: ENOV 232220Z VRB02KT 9999 FEW039 BKN055 02/M06 Q1004 RMK WIND 2175FT 14016KT

Tid: 23:59 (22:59 UTC)


TAF: saknas

Aktuella väderrapporter och prognoser från 4000 flygplatser (METAR- och TAF-rapporter).

De tillgängliga stationerna syns som gula och röda prickar på kartan.

För musen över prickarna för att se namnen på stationerna.

Klicka sedan för att få väderrapporter och prognoser.

För att ändra kartan: Klicka på de gröna knapparna med ett svart kors på för att zooma in; den gröna knappen med ett streck på för att zooma ut; eller på de gröna pilarna för angränsande kartor.


METAR-TAF: